sensor_id;sensor_type;location;lat;lon;timestamp;pressure;altitude;pressure_sealevel;temperature;humidity
41632;BME280;37452;51.938;4.624;2023-02-17T00:01:39;77458.16;;;-142.75;100.00
41632;BME280;37452;51.938;4.624;2023-02-17T00:04:05;77464.09;;;-142.75;100.00
41632;BME280;37452;51.938;4.624;2023-02-17T00:06:30;77468.03;;;-142.75;100.00
41632;BME280;37452;51.938;4.624;2023-02-17T00:08:56;77483.78;;;-142.75;100.00
41632;BME280;37452;51.938;4.624;2023-02-17T00:11:22;77491.66;;;-142.75;100.00
41632;BME280;37452;51.938;4.624;2023-02-17T00:13:47;77475.91;;;-142.75;100.00
41632;BME280;37452;51.938;4.624;2023-02-17T00:16:18;77473.94;;;-142.75;100.00
41632;BME280;37452;51.938;4.624;2023-02-17T00:18:45;77483.78;;;-142.75;100.00
41632;BME280;37452;51.938;4.624;2023-02-17T00:21:16;77471.97;;;-142.75;100.00
41632;BME280;37452;51.938;4.624;2023-02-17T00:23:42;77481.81;;;-142.75;100.00
41632;BME280;37452;51.938;4.624;2023-02-17T00:26:08;77485.75;;;-142.75;100.00
41632;BME280;37452;51.938;4.624;2023-02-17T00:28:33;77485.75;;;-142.75;100.00
41632;BME280;37452;51.938;4.624;2023-02-17T00:30:59;77489.69;;;-142.75;100.00
41632;BME280;37452;51.938;4.624;2023-02-17T00:33:29;77499.53;;;-142.75;100.00
41632;BME280;37452;51.938;4.624;2023-02-17T00:35:54;77503.47;;;-142.75;100.00
41632;BME280;37452;51.938;4.624;2023-02-17T00:38:19;77509.38;;;-142.75;100.00
41632;BME280;37452;51.938;4.624;2023-02-17T00:40:44;77503.47;;;-142.75;100.00
41632;BME280;37452;51.938;4.624;2023-02-17T00:43:10;77501.50;;;-142.75;100.00
41632;BME280;37452;51.938;4.624;2023-02-17T00:45:35;77507.41;;;-142.75;100.00
41632;BME280;37452;51.938;4.624;2023-02-17T00:48:00;77505.44;;;-142.75;100.00
41632;BME280;37452;51.938;4.624;2023-02-17T00:50:25;77503.47;;;-142.75;100.00
41632;BME280;37452;51.938;4.624;2023-02-17T00:52:51;77507.41;;;-142.75;100.00
41632;BME280;37452;51.938;4.624;2023-02-17T00:55:16;77505.44;;;-142.75;100.00
41632;BME280;37452;51.938;4.624;2023-02-17T00:57:41;77513.31;;;-142.75;100.00
41632;BME280;37452;51.938;4.624;2023-02-17T01:00:07;77511.34;;;-142.75;100.00
41632;BME280;37452;51.938;4.624;2023-02-17T01:02:33;77521.19;;;-142.75;100.00
41632;BME280;37452;51.938;4.624;2023-02-17T01:04:58;77519.22;;;-142.75;100.00
41632;BME280;37452;51.938;4.624;2023-02-17T01:07:23;77521.19;;;-142.75;100.00
41632;BME280;37452;51.938;4.624;2023-02-17T01:09:49;77531.03;;;-142.75;100.00
41632;BME280;37452;51.938;4.624;2023-02-17T01:12:14;77531.03;;;-142.75;100.00
41632;BME280;37452;51.938;4.624;2023-02-17T01:14:39;77536.94;;;-142.75;100.00
41632;BME280;37452;51.938;4.624;2023-02-17T01:17:04;77531.03;;;-142.75;100.00
41632;BME280;37452;51.938;4.624;2023-02-17T01:19:30;77531.03;;;-142.75;100.00
41632;BME280;37452;51.938;4.624;2023-02-17T01:21:55;77538.91;;;-142.75;100.00
41632;BME280;37452;51.938;4.624;2023-02-17T01:24:20;77538.91;;;-142.75;100.00
41632;BME280;37452;51.938;4.624;2023-02-17T01:26:45;77540.88;;;-142.75;100.00
41632;BME280;37452;51.938;4.624;2023-02-17T01:29:11;77540.88;;;-142.75;100.00
41632;BME280;37452;51.938;4.624;2023-02-17T01:31:36;77544.81;;;-142.75;100.00
41632;BME280;37452;51.938;4.624;2023-02-17T01:34:03;77533.00;;;-142.75;100.00
41632;BME280;37452;51.938;4.624;2023-02-17T01:36:29;77529.06;;;-142.75;100.00
41632;BME280;37452;51.938;4.624;2023-02-17T01:38:55;77531.03;;;-142.75;100.00
41632;BME280;37452;51.938;4.624;2023-02-17T01:41:21;77519.22;;;-142.75;100.00
41632;BME280;37452;51.938;4.624;2023-02-17T01:46:32;77511.34;;;-142.75;100.00
41632;BME280;37452;51.938;4.624;2023-02-17T01:48:58;77534.97;;;-142.75;100.00
41632;BME280;37452;51.938;4.624;2023-02-17T01:51:30;77525.13;;;-142.75;100.00
41632;BME280;37452;51.938;4.624;2023-02-17T01:54:02;77505.44;;;-142.75;100.00
41632;BME280;37452;51.938;4.624;2023-02-17T01:56:30;77521.19;;;-142.75;100.00
41632;BME280;37452;51.938;4.624;2023-02-17T01:59:09;77519.22;;;-142.75;100.00
41632;BME280;37452;51.938;4.624;2023-02-17T02:01:36;77529.06;;;-142.75;100.00
41632;BME280;37452;51.938;4.624;2023-02-17T02:04:02;77515.28;;;-142.75;100.00
41632;BME280;37452;51.938;4.624;2023-02-17T02:06:29;77521.19;;;-142.75;100.00
41632;BME280;37452;51.938;4.624;2023-02-17T02:09:02;77519.22;;;-142.75;100.00
41632;BME280;37452;51.938;4.624;2023-02-17T02:11:28;77499.53;;;-142.75;100.00
41632;BME280;37452;51.938;4.624;2023-02-17T02:13:54;77503.47;;;-142.75;100.00
41632;BME280;37452;51.938;4.624;2023-02-17T02:19:55;77493.63;;;-142.75;100.00
41632;BME280;37452;51.938;4.624;2023-02-17T02:32:58;77505.44;;;-142.75;100.00
41632;BME280;37452;51.938;4.624;2023-02-17T02:40:33;77493.63;;;-142.75;100.00
41632;BME280;37452;51.938;4.624;2023-02-17T02:43:01;77491.66;;;-142.75;100.00
41632;BME280;37452;51.938;4.624;2023-02-17T02:45:27;77495.59;;;-142.75;100.00
41632;BME280;37452;51.938;4.624;2023-02-17T02:47:53;77487.72;;;-142.75;100.00
41632;BME280;37452;51.938;4.624;2023-02-17T02:50:24;77483.78;;;-142.75;100.00
41632;BME280;37452;51.938;4.624;2023-02-17T02:53:06;77487.72;;;-142.75;100.00
41632;BME280;37452;51.938;4.624;2023-02-17T02:55:52;77477.88;;;-142.75;100.00
41632;BME280;37452;51.938;4.624;2023-02-17T02:58:37;77475.91;;;-142.75;100.00
41632;BME280;37452;51.938;4.624;2023-02-17T03:01:32;77485.75;;;-142.75;100.00
41632;BME280;37452;51.938;4.624;2023-02-17T03:04:08;77470.00;;;-142.75;100.00
41632;BME280;37452;51.938;4.624;2023-02-17T03:06:49;77471.97;;;-142.75;100.00
41632;BME280;37452;51.938;4.624;2023-02-17T03:09:20;77456.22;;;-142.75;100.00
41632;BME280;37452;51.938;4.624;2023-02-17T03:11:47;77448.34;;;-142.75;100.00
41632;BME280;37452;51.938;4.624;2023-02-17T03:14:16;77428.63;;;-142.75;100.00
41632;BME280;37452;51.938;4.624;2023-02-17T03:16:42;77432.56;;;-142.75;100.00
41632;BME280;37452;51.938;4.624;2023-02-17T03:19:09;77430.59;;;-142.75;100.00
41632;BME280;37452;51.938;4.624;2023-02-17T03:21:38;77432.56;;;-142.75;100.00
41632;BME280;37452;51.938;4.624;2023-02-17T03:24:06;77410.91;;;-142.75;100.00
41632;BME280;37452;51.938;4.624;2023-02-17T03:26:31;77408.94;;;-142.75;100.00
41632;BME280;37452;51.938;4.624;2023-02-17T03:28:56;77401.06;;;-142.75;100.00
41632;BME280;37452;51.938;4.624;2023-02-17T03:31:21;77399.09;;;-142.75;100.00
41632;BME280;37452;51.938;4.624;2023-02-17T03:33:47;77403.03;;;-142.75;100.00
41632;BME280;37452;51.938;4.624;2023-02-17T03:36:12;77401.06;;;-142.75;100.00
41632;BME280;37452;51.938;4.624;2023-02-17T03:38:38;77391.22;;;-142.75;100.00
41632;BME280;37452;51.938;4.624;2023-02-17T03:41:03;77393.19;;;-142.75;100.00
41632;BME280;37452;51.938;4.624;2023-02-17T03:43:28;77389.25;;;-142.75;100.00
41632;BME280;37452;51.938;4.624;2023-02-17T03:45:53;77385.31;;;-142.75;100.00
41632;BME280;37452;51.938;4.624;2023-02-17T03:48:19;77397.13;;;-142.75;100.00
41632;BME280;37452;51.938;4.624;2023-02-17T03:50:44;77395.16;;;-142.75;100.00
41632;BME280;37452;51.938;4.624;2023-02-17T03:53:10;77393.19;;;-142.75;100.00
41632;BME280;37452;51.938;4.624;2023-02-17T03:55:35;77397.13;;;-142.75;100.00
41632;BME280;37452;51.938;4.624;2023-02-17T03:58:00;77379.41;;;-142.75;100.00
41632;BME280;37452;51.938;4.624;2023-02-17T04:00:26;77385.31;;;-142.75;100.00
41632;BME280;37452;51.938;4.624;2023-02-17T04:02:51;77393.19;;;-142.75;100.00
41632;BME280;37452;51.938;4.624;2023-02-17T04:05:16;77389.25;;;-142.75;100.00
41632;BME280;37452;51.938;4.624;2023-02-17T04:07:41;77391.22;;;-142.75;100.00
41632;BME280;37452;51.938;4.624;2023-02-17T04:10:07;77385.31;;;-142.75;100.00
41632;BME280;37452;51.938;4.624;2023-02-17T04:12:32;77395.16;;;-142.75;100.00
41632;BME280;37452;51.938;4.624;2023-02-17T04:14:58;77381.38;;;-142.75;100.00
41632;BME280;37452;51.938;4.624;2023-02-17T04:17:23;77387.28;;;-142.75;100.00
41632;BME280;37452;51.938;4.624;2023-02-17T04:19:48;77383.34;;;-142.75;100.00
41632;BME280;37452;51.938;4.624;2023-02-17T04:22:14;77389.25;;;-142.75;100.00
41632;BME280;37452;51.938;4.624;2023-02-17T04:24:39;77383.34;;;-142.75;100.00
41632;BME280;37452;51.938;4.624;2023-02-17T04:27:04;77365.63;;;-142.75;100.00
41632;BME280;37452;51.938;4.624;2023-02-17T04:29:31;77369.56;;;-142.75;100.00
41632;BME280;37452;51.938;4.624;2023-02-17T04:31:56;77377.44;;;-142.75;100.00
41632;BME280;37452;51.938;4.624;2023-02-17T04:34:22;77373.50;;;-142.75;100.00
41632;BME280;37452;51.938;4.624;2023-02-17T04:36:47;77365.63;;;-142.75;100.00
41632;BME280;37452;51.938;4.624;2023-02-17T04:39:12;77365.63;;;-142.75;100.00
41632;BME280;37452;51.938;4.624;2023-02-17T04:41:38;77363.66;;;-142.75;100.00
41632;BME280;37452;51.938;4.624;2023-02-17T04:44:03;77351.84;;;-142.75;100.00
41632;BME280;37452;51.938;4.624;2023-02-17T04:46:28;77338.06;;;-142.75;100.00
41632;BME280;37452;51.938;4.624;2023-02-17T04:48:53;77342.00;;;-142.75;100.00
41632;BME280;37452;51.938;4.624;2023-02-17T04:51:19;77338.06;;;-142.75;100.00
41632;BME280;37452;51.938;4.624;2023-02-17T04:53:44;77340.03;;;-142.75;100.00
41632;BME280;37452;51.938;4.624;2023-02-17T04:56:10;77340.03;;;-142.75;100.00
41632;BME280;37452;51.938;4.624;2023-02-17T04:58:35;77342.00;;;-142.75;100.00
41632;BME280;37452;51.938;4.624;2023-02-17T05:01:00;77345.94;;;-142.75;100.00
41632;BME280;37452;51.938;4.624;2023-02-17T05:03:26;77357.75;;;-142.75;100.00
41632;BME280;37452;51.938;4.624;2023-02-17T05:05:51;77359.72;;;-142.75;100.00
41632;BME280;37452;51.938;4.624;2023-02-17T05:08:17;77349.88;;;-142.75;100.00
41632;BME280;37452;51.938;4.624;2023-02-17T05:10:42;77353.81;;;-142.75;100.00
41632;BME280;37452;51.938;4.624;2023-02-17T05:13:07;77334.13;;;-142.75;100.00
41632;BME280;37452;51.938;4.624;2023-02-17T05:15:33;77342.00;;;-142.75;100.00
41632;BME280;37452;51.938;4.624;2023-02-17T05:17:58;77347.91;;;-142.75;100.00
41632;BME280;37452;51.938;4.624;2023-02-17T05:20:24;77343.97;;;-142.75;100.00
41632;BME280;37452;51.938;4.624;2023-02-17T05:22:49;77330.19;;;-142.75;100.00
41632;BME280;37452;51.938;4.624;2023-02-17T05:25:14;77332.16;;;-142.75;100.00
41632;BME280;37452;51.938;4.624;2023-02-17T05:27:39;77334.13;;;-142.75;100.00
41632;BME280;37452;51.938;4.624;2023-02-17T05:30:05;77314.44;;;-142.75;100.00
41632;BME280;37452;51.938;4.624;2023-02-17T05:32:31;77318.38;;;-142.75;100.00
41632;BME280;37452;51.938;4.624;2023-02-17T05:34:56;77318.38;;;-142.75;100.00
41632;BME280;37452;51.938;4.624;2023-02-17T05:37:21;77306.56;;;-142.75;100.00
41632;BME280;37452;51.938;4.624;2023-02-17T05:39:47;77296.72;;;-142.75;100.00
41632;BME280;37452;51.938;4.624;2023-02-17T05:42:12;77300.66;;;-142.75;100.00
41632;BME280;37452;51.938;4.624;2023-02-17T05:44:37;77298.69;;;-142.75;100.00
41632;BME280;37452;51.938;4.624;2023-02-17T05:47:03;77286.88;;;-142.75;100.00
41632;BME280;37452;51.938;4.624;2023-02-17T05:49:28;77288.84;;;-142.75;100.00
41632;BME280;37452;51.938;4.624;2023-02-17T05:51:54;77290.81;;;-142.75;100.00
41632;BME280;37452;51.938;4.624;2023-02-17T05:54:19;77292.78;;;-142.75;100.00
41632;BME280;37452;51.938;4.624;2023-02-17T05:56:44;77277.03;;;-142.75;100.00
41632;BME280;37452;51.938;4.624;2023-02-17T05:59:10;77284.91;;;-142.75;100.00
41632;BME280;37452;51.938;4.624;2023-02-17T06:01:35;77280.97;;;-142.75;100.00
41632;BME280;37452;51.938;4.624;2023-02-17T06:04:01;77277.03;;;-142.75;100.00
41632;BME280;37452;51.938;4.624;2023-02-17T06:06:27;77267.19;;;-142.75;100.00
41632;BME280;37452;51.938;4.624;2023-02-17T06:08:52;77275.06;;;-142.75;100.00
41632;BME280;37452;51.938;4.624;2023-02-17T06:11:17;77259.31;;;-142.75;100.00
41632;BME280;37452;51.938;4.624;2023-02-17T06:13:43;77280.97;;;-142.75;100.00
41632;BME280;37452;51.938;4.624;2023-02-17T06:16:08;77263.25;;;-142.75;100.00
41632;BME280;37452;51.938;4.624;2023-02-17T06:18:33;77265.22;;;-142.75;100.00
41632;BME280;37452;51.938;4.624;2023-02-17T06:20:59;77265.22;;;-142.75;100.00
41632;BME280;37452;51.938;4.624;2023-02-17T06:23:25;77255.38;;;-142.75;100.00
41632;BME280;37452;51.938;4.624;2023-02-17T06:25:51;77261.28;;;-142.75;100.00
41632;BME280;37452;51.938;4.624;2023-02-17T06:28:16;77251.44;;;-142.75;100.00
41632;BME280;37452;51.938;4.624;2023-02-17T06:30:42;77263.25;;;-142.75;100.00
41632;BME280;37452;51.938;4.624;2023-02-17T06:33:07;77267.19;;;-142.75;100.00
41632;BME280;37452;51.938;4.624;2023-02-17T06:35:32;77257.34;;;-142.75;100.00
41632;BME280;37452;51.938;4.624;2023-02-17T06:37:58;77247.50;;;-142.75;100.00
41632;BME280;37452;51.938;4.624;2023-02-17T06:40:23;77251.44;;;-142.75;100.00
41632;BME280;37452;51.938;4.624;2023-02-17T06:42:49;77251.44;;;-142.75;100.00
41632;BME280;37452;51.938;4.624;2023-02-17T06:45:14;77243.56;;;-142.75;100.00
41632;BME280;37452;51.938;4.624;2023-02-17T06:47:39;77229.78;;;-142.75;100.00
41632;BME280;37452;51.938;4.624;2023-02-17T06:50:05;77233.72;;;-142.75;100.00
41632;BME280;37452;51.938;4.624;2023-02-17T06:52:31;77235.69;;;-142.75;100.00
41632;BME280;37452;51.938;4.624;2023-02-17T06:54:56;77237.66;;;-142.75;100.00
41632;BME280;37452;51.938;4.624;2023-02-17T06:57:22;77237.66;;;-142.75;100.00
41632;BME280;37452;51.938;4.624;2023-02-17T06:59:47;77221.91;;;-142.75;100.00
41632;BME280;37452;51.938;4.624;2023-02-17T07:02:13;77221.91;;;-142.75;100.00
41632;BME280;37452;51.938;4.624;2023-02-17T07:04:39;77223.88;;;-142.75;100.00
41632;BME280;37452;51.938;4.624;2023-02-17T07:07:04;77219.94;;;-142.75;100.00
41632;BME280;37452;51.938;4.624;2023-02-17T07:09:30;77204.19;;;-142.75;100.00
41632;BME280;37452;51.938;4.624;2023-02-17T07:11:55;77212.06;;;-142.75;100.00
41632;BME280;37452;51.938;4.624;2023-02-17T07:14:22;77217.97;;;-142.75;100.00
41632;BME280;37452;51.938;4.624;2023-02-17T07:16:47;77212.06;;;-142.75;100.00
41632;BME280;37452;51.938;4.624;2023-02-17T07:19:13;77212.06;;;-142.75;100.00
41632;BME280;37452;51.938;4.624;2023-02-17T07:21:38;77225.84;;;-142.75;100.00
41632;BME280;37452;51.938;4.624;2023-02-17T07:24:03;77231.75;;;-142.75;100.00
41632;BME280;37452;51.938;4.624;2023-02-17T07:26:29;77237.66;;;-142.75;100.00
41632;BME280;37452;51.938;4.624;2023-02-17T07:28:54;77243.56;;;-142.75;100.00
41632;BME280;37452;51.938;4.624;2023-02-17T07:31:19;77245.53;;;-142.75;100.00
41632;BME280;37452;51.938;4.624;2023-02-17T07:33:45;77237.66;;;-142.75;100.00
41632;BME280;37452;51.938;4.624;2023-02-17T07:36:13;77216.00;;;-142.75;100.00
41632;BME280;37452;51.938;4.624;2023-02-17T07:38:40;77221.91;;;-142.75;100.00
41632;BME280;37452;51.938;4.624;2023-02-17T07:41:10;77227.81;;;-142.75;100.00
41632;BME280;37452;51.938;4.624;2023-02-17T07:43:35;77243.56;;;-142.75;100.00
41632;BME280;37452;51.938;4.624;2023-02-17T07:46:01;77239.63;;;-142.75;100.00
41632;BME280;37452;51.938;4.624;2023-02-17T07:48:26;77251.44;;;-142.75;100.00
41632;BME280;37452;51.938;4.624;2023-02-17T07:50:52;77239.63;;;-142.75;100.00
41632;BME280;37452;51.938;4.624;2023-02-17T07:53:17;77247.50;;;-142.75;100.00
41632;BME280;37452;51.938;4.624;2023-02-17T07:55:42;77231.75;;;-142.75;100.00
41632;BME280;37452;51.938;4.624;2023-02-17T07:58:08;77249.47;;;-142.75;100.00
41632;BME280;37452;51.938;4.624;2023-02-17T08:00:33;77255.38;;;-142.75;100.00
41632;BME280;37452;51.938;4.624;2023-02-17T08:02:58;77267.19;;;-142.75;100.00
41632;BME280;37452;51.938;4.624;2023-02-17T08:05:23;77253.41;;;-142.75;100.00
41632;BME280;37452;51.938;4.624;2023-02-17T08:07:49;77259.31;;;-142.75;100.00
41632;BME280;37452;51.938;4.624;2023-02-17T08:10:36;77245.53;;;-142.75;100.00
41632;BME280;37452;51.938;4.624;2023-02-17T08:13:20;77271.13;;;-142.75;100.00
41632;BME280;37452;51.938;4.624;2023-02-17T08:15:45;77277.03;;;-142.75;100.00
41632;BME280;37452;51.938;4.624;2023-02-17T08:18:11;77282.94;;;-142.75;100.00
41632;BME280;37452;51.938;4.624;2023-02-17T08:20:36;77282.94;;;-142.75;100.00
41632;BME280;37452;51.938;4.624;2023-02-17T08:23:02;77275.06;;;-142.75;100.00
41632;BME280;37452;51.938;4.624;2023-02-17T08:25:30;77257.34;;;-142.75;100.00
41632;BME280;37452;51.938;4.624;2023-02-17T08:27:55;77275.06;;;-142.75;100.00
41632;BME280;37452;51.938;4.624;2023-02-17T08:30:20;77273.09;;;-142.75;100.00
41632;BME280;37452;51.938;4.624;2023-02-17T08:32:46;77279.00;;;-142.75;100.00
41632;BME280;37452;51.938;4.624;2023-02-17T08:35:11;77265.22;;;-142.75;100.00
41632;BME280;37452;51.938;4.624;2023-02-17T08:37:37;77261.28;;;-142.75;100.00
41632;BME280;37452;51.938;4.624;2023-02-17T08:40:03;77267.19;;;-142.75;100.00
41632;BME280;37452;51.938;4.624;2023-02-17T08:42:30;77265.22;;;-142.75;100.00
41632;BME280;37452;51.938;4.624;2023-02-17T08:44:56;77271.13;;;-142.75;100.00
41632;BME280;37452;51.938;4.624;2023-02-17T08:47:21;77275.06;;;-142.75;100.00
41632;BME280;37452;51.938;4.624;2023-02-17T08:49:46;77263.25;;;-142.75;100.00
41632;BME280;37452;51.938;4.624;2023-02-17T08:52:12;77267.19;;;-142.75;100.00
41632;BME280;37452;51.938;4.624;2023-02-17T08:54:37;77279.00;;;-142.75;100.00
41632;BME280;37452;51.938;4.624;2023-02-17T08:57:02;77271.13;;;-142.75;100.00
41632;BME280;37452;51.938;4.624;2023-02-17T08:59:28;77249.47;;;-142.75;100.00
41632;BME280;37452;51.938;4.624;2023-02-17T09:01:53;77279.00;;;-142.75;100.00
41632;BME280;37452;51.938;4.624;2023-02-17T09:04:19;77265.22;;;-142.75;100.00
41632;BME280;37452;51.938;4.624;2023-02-17T09:06:47;77265.22;;;-142.75;100.00
41632;BME280;37452;51.938;4.624;2023-02-17T09:09:17;77267.19;;;-142.75;100.00
41632;BME280;37452;51.938;4.624;2023-02-17T09:11:44;77267.19;;;-142.75;100.00
41632;BME280;37452;51.938;4.624;2023-02-17T09:14:09;77269.16;;;-142.75;100.00
41632;BME280;37452;51.938;4.624;2023-02-17T09:16:35;77294.75;;;-142.75;100.00
41632;BME280;37452;51.938;4.624;2023-02-17T09:19:00;77294.75;;;-142.75;100.00
41632;BME280;37452;51.938;4.624;2023-02-17T09:21:26;77302.63;;;-142.75;100.00
41632;BME280;37452;51.938;4.624;2023-02-17T09:23:51;77306.56;;;-142.75;100.00
41632;BME280;37452;51.938;4.624;2023-02-17T09:26:18;77308.53;;;-142.75;100.00
41632;BME280;37452;51.938;4.624;2023-02-17T09:28:44;77324.28;;;-142.75;100.00
41632;BME280;37452;51.938;4.624;2023-02-17T09:31:12;77294.75;;;-142.75;100.00
41632;BME280;37452;51.938;4.624;2023-02-17T09:33:38;77312.47;;;-142.75;100.00
41632;BME280;37452;51.938;4.624;2023-02-17T09:36:09;77294.75;;;-142.75;100.00
41632;BME280;37452;51.938;4.624;2023-02-17T09:38:37;77286.88;;;-142.75;100.00
41632;BME280;37452;51.938;4.624;2023-02-17T09:41:24;77282.94;;;-142.75;100.00
41632;BME280;37452;51.938;4.624;2023-02-17T09:43:52;77294.75;;;-142.75;100.00
41632;BME280;37452;51.938;4.624;2023-02-17T09:46:34;77280.97;;;-142.75;100.00
41632;BME280;37452;51.938;4.624;2023-02-17T09:49:14;77280.97;;;-142.75;100.00
41632;BME280;37452;51.938;4.624;2023-02-17T09:54:19;77253.41;;;-142.75;100.00
41632;BME280;37452;51.938;4.624;2023-02-17T09:56:47;77251.44;;;-142.75;100.00
41632;BME280;37452;51.938;4.624;2023-02-17T10:01:45;77267.19;;;-142.75;100.00
41632;BME280;37452;51.938;4.624;2023-02-17T10:04:21;77286.88;;;-142.75;100.00
41632;BME280;37452;51.938;4.624;2023-02-17T10:06:50;77286.88;;;-142.75;100.00
41632;BME280;37452;51.938;4.624;2023-02-17T10:09:25;77282.94;;;-142.75;100.00
41632;BME280;37452;51.938;4.624;2023-02-17T10:12:00;77277.03;;;-142.75;100.00
41632;BME280;37452;51.938;4.624;2023-02-17T10:17:34;77282.94;;;-142.75;100.00
41632;BME280;37452;51.938;4.624;2023-02-17T10:20:08;77275.06;;;-142.75;100.00
41632;BME280;37452;51.938;4.624;2023-02-17T10:22:35;77296.72;;;-142.75;100.00
41632;BME280;37452;51.938;4.624;2023-02-17T10:25:02;77302.63;;;-142.75;100.00
41632;BME280;37452;51.938;4.624;2023-02-17T10:30:37;77286.88;;;-142.75;100.00
41632;BME280;37452;51.938;4.624;2023-02-17T10:33:22;77288.84;;;-142.75;100.00
41632;BME280;37452;51.938;4.624;2023-02-17T10:35:52;77306.56;;;-142.75;100.00
41632;BME280;37452;51.938;4.624;2023-02-17T10:40:59;77290.81;;;-142.75;100.00
41632;BME280;37452;51.938;4.624;2023-02-17T10:43:28;77310.50;;;-142.75;100.00
41632;BME280;37452;51.938;4.624;2023-02-17T10:45:56;77296.72;;;-142.75;100.00
41632;BME280;37452;51.938;4.624;2023-02-17T10:48:27;77302.63;;;-142.75;100.00
41632;BME280;37452;51.938;4.624;2023-02-17T10:50:58;77306.56;;;-142.75;100.00
41632;BME280;37452;51.938;4.624;2023-02-17T10:53:29;77326.25;;;-142.75;100.00
41632;BME280;37452;51.938;4.624;2023-02-17T10:56:12;77310.50;;;-142.75;100.00
41632;BME280;37452;51.938;4.624;2023-02-17T11:01:11;77306.56;;;-142.75;100.00
41632;BME280;37452;51.938;4.624;2023-02-17T11:03:37;77338.06;;;-142.75;100.00
41632;BME280;37452;51.938;4.624;2023-02-17T11:06:22;77334.13;;;-142.75;100.00
41632;BME280;37452;51.938;4.624;2023-02-17T11:11:13;77343.97;;;-142.75;100.00
41632;BME280;37452;51.938;4.624;2023-02-17T11:13:43;77347.91;;;-142.75;100.00
41632;BME280;37452;51.938;4.624;2023-02-17T11:16:35;77328.22;;;-142.75;100.00
41632;BME280;37452;51.938;4.624;2023-02-17T11:19:02;77330.19;;;-142.75;100.00
41632;BME280;37452;51.938;4.624;2023-02-17T11:21:29;77340.03;;;-142.75;100.00
41632;BME280;37452;51.938;4.624;2023-02-17T11:23:58;77334.13;;;-142.75;100.00
41632;BME280;37452;51.938;4.624;2023-02-17T11:26:26;77338.06;;;-142.75;100.00
41632;BME280;37452;51.938;4.624;2023-02-17T11:28:52;77343.97;;;-142.75;100.00
41632;BME280;37452;51.938;4.624;2023-02-17T11:31:29;77342.00;;;-142.75;100.00
41632;BME280;37452;51.938;4.624;2023-02-17T11:33:55;77340.03;;;-142.75;100.00
41632;BME280;37452;51.938;4.624;2023-02-17T11:36:27;77343.97;;;-142.75;100.00
41632;BME280;37452;51.938;4.624;2023-02-17T11:38:52;77349.88;;;-142.75;100.00
41632;BME280;37452;51.938;4.624;2023-02-17T11:41:18;77349.88;;;-142.75;100.00
41632;BME280;37452;51.938;4.624;2023-02-17T11:43:53;77345.94;;;-142.75;100.00
41632;BME280;37452;51.938;4.624;2023-02-17T11:51:50;77361.69;;;-142.75;100.00
41632;BME280;37452;51.938;4.624;2023-02-17T11:54:31;77375.47;;;-142.75;100.00
41632;BME280;37452;51.938;4.624;2023-02-17T11:59:51;77365.63;;;-142.75;100.00
41632;BME280;37452;51.938;4.624;2023-02-17T12:07:35;77353.81;;;-142.75;100.00
41632;BME280;37452;51.938;4.624;2023-02-17T12:10:27;77351.84;;;-142.75;100.00
41632;BME280;37452;51.938;4.624;2023-02-17T12:13:19;77349.88;;;-142.75;100.00
41632;BME280;37452;51.938;4.624;2023-02-17T12:15:56;77349.88;;;-142.75;100.00
41632;BME280;37452;51.938;4.624;2023-02-17T12:26:41;77377.44;;;-142.75;100.00
41632;BME280;37452;51.938;4.624;2023-02-17T12:32:39;77393.19;;;-142.75;100.00
41632;BME280;37452;51.938;4.624;2023-02-17T12:35:17;77408.94;;;-142.75;100.00
41632;BME280;37452;51.938;4.624;2023-02-17T12:38:00;77414.84;;;-142.75;100.00
41632;BME280;37452;51.938;4.624;2023-02-17T12:40:34;77393.19;;;-142.75;100.00
41632;BME280;37452;51.938;4.624;2023-02-17T12:43:39;77408.94;;;-142.75;100.00
41632;BME280;37452;51.938;4.624;2023-02-17T12:46:10;77414.84;;;-142.75;100.00
41632;BME280;37452;51.938;4.624;2023-02-17T12:48:40;77420.75;;;-142.75;100.00
41632;BME280;37452;51.938;4.624;2023-02-17T12:51:18;77418.78;;;-142.75;100.00
41632;BME280;37452;51.938;4.624;2023-02-17T12:53:58;77434.53;;;-142.75;100.00
41632;BME280;37452;51.938;4.624;2023-02-17T12:56:56;77444.38;;;-142.75;100.00
41632;BME280;37452;51.938;4.624;2023-02-17T12:59:33;77460.13;;;-142.75;100.00
41632;BME280;37452;51.938;4.624;2023-02-17T13:02:06;77458.16;;;-142.75;100.00
41632;BME280;37452;51.938;4.624;2023-02-17T13:04:34;77444.38;;;-142.75;100.00
41632;BME280;37452;51.938;4.624;2023-02-17T13:07:09;77444.38;;;-142.75;100.00
41632;BME280;37452;51.938;4.624;2023-02-17T13:09:40;77432.56;;;-142.75;100.00
41632;BME280;37452;51.938;4.624;2023-02-17T13:14:46;77444.38;;;-142.75;100.00
41632;BME280;37452;51.938;4.624;2023-02-17T13:19:46;77436.50;;;-142.75;100.00
41632;BME280;37452;51.938;4.624;2023-02-17T13:22:20;77438.47;;;-142.75;100.00
41632;BME280;37452;51.938;4.624;2023-02-17T13:24:54;77422.72;;;-142.75;100.00
41632;BME280;37452;51.938;4.624;2023-02-17T13:29:57;77434.53;;;-142.75;100.00
41632;BME280;37452;51.938;4.624;2023-02-17T13:32:27;77444.38;;;-142.75;100.00
41632;BME280;37452;51.938;4.624;2023-02-17T13:37:49;77432.56;;;-142.75;100.00
41632;BME280;37452;51.938;4.624;2023-02-17T13:42:43;77440.44;;;-142.75;100.00
41632;BME280;37452;51.938;4.624;2023-02-17T13:45:31;77424.69;;;-142.75;100.00
41632;BME280;37452;51.938;4.624;2023-02-17T13:47:59;77412.88;;;-142.75;100.00
41632;BME280;37452;51.938;4.624;2023-02-17T13:50:36;77395.16;;;-142.75;100.00
41632;BME280;37452;51.938;4.624;2023-02-17T13:55:45;77397.13;;;-142.75;100.00
41632;BME280;37452;51.938;4.624;2023-02-17T13:58:10;77412.88;;;-142.75;100.00